Akogare — JPDL — position and weather

sailwx.info

Track history (hours):
 
Tides and Currents Weather Stations Pressure Air Temp Water Temp Dewpoint Dewpoint Depression Visibility Wind Speed Wind Dir Waves Ship Positions

Akogare (Japan)

Ship's website: http://www.akogare.or.jp/eng/top.html

Last reported at 2019-Apr-05 13:31 UTC. Time now 2019-Apr-25 15:46 UTC.
Position N 34°37' E 134°29'.
Warning: this ship's position is 20 days out of date.

Length 52 m; draft 4.5 m.

Type: Sailing vessel. MMSI: 431005001.

Date/timePositionNaut miles runAvg speedWind from/ knotsBaromVisibWave heightAir tempDewpointWater temp
2019-Apr-05 13:31N 34°37' E 134°29'1 6.3
2019-Apr-05 13:26N 34°37' E 134°30'18 6.3
2019-Apr-05 10:40N 34°38' E 134°51'2 9.9
2019-Apr-05 10:25N 34°37' E 134°54'4 9.1
2019-Apr-05 10:00N 34°37' E 134°58'4 8.6
2019-Apr-05 09:30N 34°36' E 135°03'4 7.4
2019-Apr-05 09:00N 34°37' E 135°08'4 7.2
2019-Apr-05 08:31N 34°39' E 135°11'2 3.0
2019-Apr-05 07:53N 34°41' E 135°11'0 0.0
2019-Apr-05 07:30N 34°41' E 135°11'0 0.0
2019-Apr-05 07:00N 34°41' E 135°11'0 0.0
2019-Apr-05 06:30N 34°41' E 135°11'0 0.0
2019-Apr-05 06:00N 34°41' E 135°11'0 0.0
2019-Apr-05 05:18N 34°41' E 135°11'0 0.0
2019-Apr-05 05:00N 34°41' E 135°11'0 0.0
2019-Apr-05 04:30N 34°41' E 135°11'0 0.0
2019-Apr-05 04:00N 34°41' E 135°11'0 0.0
2019-Apr-05 03:30N 34°41' E 135°11'0 0.0
2019-Apr-05 02:48N 34°41' E 135°11'0 0.0
2019-Apr-05 02:30N 34°41' E 135°11'0 0.0
2019-Apr-05 02:00N 34°41' E 135°11'0 0.0
2019-Apr-05 01:30N 34°41' E 135°11'0 0.0
2019-Apr-05 01:00N 34°41' E 135°11'0 0.0
2019-Apr-05 00:30N 34°41' E 135°11'0 0.0
2019-Apr-05 00:00N 34°41' E 135°11'0 0.0
2019-Apr-04 23:24N 34°41' E 135°11'0 0.0
2019-Apr-04 23:00N 34°41' E 135°11'0 0.0
2019-Apr-04 22:30N 34°41' E 135°11'0 0.0
2019-Apr-04 22:00N 34°41' E 135°11'0 0.0
2019-Apr-04 21:30N 34°41' E 135°11'0 0.0
2019-Apr-04 21:00N 34°41' E 135°11'0 0.0
2019-Apr-04 20:30N 34°41' E 135°11'0 0.0
2019-Apr-04 20:00N 34°41' E 135°11'0 0.1
2019-Apr-04 19:18N 34°41' E 135°11'0 0.1
2019-Apr-04 18:54N 34°41' E 135°11'0 0.0
2019-Apr-04 18:24N 34°41' E 135°11'0 0.0
2019-Apr-04 18:00N 34°41' E 135°11'0 0.0
2019-Apr-04 17:30N 34°41' E 135°11'0 0.0
2019-Apr-04 16:54N 34°41' E 135°11'0 0.0
2019-Apr-04 16:30N 34°41' E 135°11'0 0.0
2019-Apr-04 16:00N 34°41' E 135°11'0 0.0
2019-Apr-04 15:24N 34°41' E 135°11'0 0.0
2019-Apr-04 15:00N 34°41' E 135°11'0 0.0
2019-Apr-04 14:30N 34°41' E 135°11'0 0.0
2019-Apr-04 14:00N 34°41' E 135°11'0 0.0
2019-Apr-04 13:30N 34°41' E 135°11'0 0.0
2019-Apr-04 13:00N 34°41' E 135°11'0 0.0
2019-Apr-04 12:27N 34°41' E 135°11'0 0.0
2019-Apr-04 11:57N 34°41' E 135°11'0 0.0
2019-Apr-04 11:27N 34°41' E 135°11'0 0.0
2019-Apr-04 10:51N 34°41' E 135°11'0 0.0
2019-Apr-04 10:27N 34°41' E 135°11'0 0.0
2019-Apr-04 09:57N 34°41' E 135°11'0 0.0
2019-Apr-04 09:27N 34°41' E 135°11'0 0.0
2019-Apr-04 08:57N 34°41' E 135°11'0 0.0
2019-Apr-04 08:27N 34°41' E 135°11'0 0.0
2019-Apr-04 07:57N 34°41' E 135°11'0 0.0
2019-Apr-04 07:27N 34°41' E 135°11'0 0.0
2019-Apr-04 06:57N 34°41' E 135°11'0 0.0
2019-Apr-04 06:27N 34°41' E 135°11'0 0.0
2019-Apr-04 05:57N 34°41' E 135°11'0 0.0
2019-Apr-04 05:27N 34°41' E 135°11'0 0.0
2019-Apr-04 04:57N 34°41' E 135°11'0 0.0
2019-Apr-04 04:27N 34°41' E 135°11'0 0.0
2019-Apr-04 03:51N 34°41' E 135°11'0 0.0
2019-Apr-04 03:27N 34°41' E 135°11'0 0.0
2019-Apr-04 02:45N 34°41' E 135°11'0 0.0
2019-Apr-04 02:27N 34°41' E 135°11'0 0.0
2019-Apr-04 01:45N 34°41' E 135°11'0 0.0
2019-Apr-04 01:27N 34°41' E 135°11'0 0.0
2019-Apr-04 00:57N 34°41' E 135°11'0 0.0
2019-Apr-04 00:21N 34°41' E 135°11'0 0.0
2019-Apr-03 23:57N 34°41' E 135°11'0 0.0
2019-Apr-03 23:27N 34°41' E 135°11'0 0.0
2019-Apr-03 22:51N 34°41' E 135°11'0 0.0
2019-Apr-03 22:27N 34°41' E 135°11'0 0.0
2019-Apr-03 21:51N 34°41' E 135°11'0 0.0
2019-Apr-03 21:27N 34°41' E 135°11'0 0.0
2019-Apr-03 20:57N 34°41' E 135°11'0 0.0
2019-Apr-03 20:27N 34°41' E 135°11'0 0.0
2019-Apr-03 19:57N 34°41' E 135°11'0 0.0
2019-Apr-03 19:27N 34°41' E 135°11'0 0.0
2019-Apr-03 18:57N 34°41' E 135°11'0 0.0
2019-Apr-03 18:27N 34°41' E 135°11'0 0.0
2019-Apr-03 17:57N 34°41' E 135°11'0 0.0
2019-Apr-03 17:27N 34°41' E 135°11'0 0.0
2019-Apr-03 16:57N 34°41' E 135°11'0 0.0
2019-Apr-03 16:27N 34°41' E 135°11'0 0.0
2019-Apr-03 15:51N 34°41' E 135°11'0 0.0
2019-Apr-03 15:27N 34°41' E 135°11'0 0.0
2019-Apr-03 14:57N 34°41' E 135°11'0 0.0
2019-Apr-03 14:21N 34°41' E 135°11'0 0.0
2019-Apr-03 13:57N 34°41' E 135°11'0 0.0
2019-Apr-03 13:27N 34°41' E 135°11'0 0.0
2019-Apr-03 12:51N 34°41' E 135°11'0 0.0
2019-Apr-03 12:21N 34°41' E 135°11'0 0.0
2019-Apr-03 11:57N 34°41' E 135°11'0 0.0
2019-Apr-03 11:21N 34°41' E 135°11'0 0.0
2019-Apr-03 10:57N 34°41' E 135°11'0 0.0
2019-Apr-03 10:21N 34°41' E 135°11'0 0.0
2019-Apr-03 09:57N 34°41' E 135°11'0 0.0
2019-Apr-03 09:27N 34°41' E 135°11'0 0.0
2019-Apr-03 08:57N 34°41' E 135°11'0 0.0
2019-Apr-03 08:27N 34°41' E 135°11'0 0.0
2019-Apr-03 07:57N 34°41' E 135°11'0 0.0
2019-Apr-03 07:27N 34°41' E 135°11'0 0.0
2019-Apr-03 06:51N 34°41' E 135°11'0 0.0
2019-Apr-03 06:15N 34°41' E 135°11'0 0.0
2019-Apr-03 05:57N 34°41' E 135°11'0 0.0
2019-Apr-03 05:27N 34°41' E 135°11'0 0.0
2019-Apr-03 04:51N 34°41' E 135°11'0 0.0
2019-Apr-03 04:27N 34°41' E 135°11'0 0.0
2019-Apr-03 03:57N 34°41' E 135°11'0 0.0
2019-Apr-03 03:27N 34°41' E 135°11'0 0.0
2019-Apr-03 02:57N 34°41' E 135°11'0 0.0
2019-Apr-03 02:21N 34°41' E 135°11'0 0.0
2019-Apr-03 01:57N 34°41' E 135°11'0 0.0
2019-Apr-03 01:27N 34°41' E 135°11'0 0.0
2019-Apr-03 00:51N 34°41' E 135°11'0 0.0
2019-Apr-03 00:27N 34°41' E 135°11'0 0.0
2019-Apr-02 23:57N 34°41' E 135°11'0 0.0
2019-Apr-02 23:27N 34°41' E 135°11'0 0.0
2019-Apr-02 22:51N 34°41' E 135°11'0 0.0
2019-Apr-02 22:27N 34°41' E 135°11'0 0.0
2019-Apr-02 21:57N 34°41' E 135°11'0 0.0
2019-Apr-02 21:21N 34°41' E 135°11'0 0.0
2019-Apr-02 20:51N 34°41' E 135°11'0 0.0
2019-Apr-02 20:27N 34°41' E 135°11'0 0.0
2019-Apr-02 19:45N 34°41' E 135°11'0 0.1
2019-Apr-02 19:21N 34°41' E 135°11'0 0.1
2019-Apr-02 18:57N 34°41' E 135°11'0 0.0
2019-Apr-02 18:27N 34°41' E 135°11'0 0.0
2019-Apr-02 17:57N 34°41' E 135°11'0 0.0
2019-Apr-02 17:27N 34°41' E 135°11'0 0.0
2019-Apr-02 16:57N 34°41' E 135°11'0 0.0
2019-Apr-02 16:27N 34°41' E 135°11'0 0.0
2019-Apr-02 15:57N 34°41' E 135°11'0 0.0
2019-Apr-02 15:27N 34°41' E 135°11'0 0.0
2019-Apr-02 14:57N 34°41' E 135°11'0 0.0
2019-Apr-02 14:27N 34°41' E 135°11'0 0.0
2019-Apr-02 13:57N 34°41' E 135°11'0 0.0
2019-Apr-02 13:27N 34°41' E 135°11'0 0.0
2019-Apr-02 12:51N 34°41' E 135°11'0 0.0
2019-Apr-02 12:15N 34°41' E 135°11'0 0.0
2019-Apr-02 11:45N 34°41' E 135°11'0 0.0
2019-Apr-02 11:27N 34°41' E 135°11'0 0.0
2019-Apr-02 10:57N 34°41' E 135°11'0 0.0
2019-Apr-02 10:27N 34°41' E 135°11'0 0.0
2019-Apr-02 09:51N 34°41' E 135°11'0 0.0
2019-Apr-02 09:21N 34°41' E 135°11'0 0.0
2019-Apr-02 08:57N 34°41' E 135°11'0 0.0
2019-Apr-02 08:27N 34°41' E 135°11'0 0.0
2019-Apr-02 07:51N 34°41' E 135°11'0 0.0
2019-Apr-02 07:27N 34°41' E 135°11'0 0.0
2019-Apr-02 06:57N 34°41' E 135°11'0 0.0
2019-Apr-02 06:27N 34°41' E 135°11'0 0.0
2019-Apr-02 05:57N 34°41' E 135°11'0 0.0
2019-Apr-02 05:27N 34°41' E 135°11'0 0.0
2019-Apr-02 04:57N 34°41' E 135°11'0 0.0
2019-Apr-02 04:27N 34°41' E 135°11'0 0.0
2019-Apr-02 03:57N 34°41' E 135°11'0 0.0
2019-Apr-02 03:27N 34°41' E 135°11'0 0.0
2019-Apr-02 02:51N 34°41' E 135°11'0 0.0
2019-Apr-02 02:21N 34°41' E 135°11'0 0.0
2019-Apr-02 01:51N 34°41' E 135°11'0 0.0
2019-Apr-02 01:27N 34°41' E 135°11'0 0.0
2019-Apr-02 00:57N 34°41' E 135°11'0 0.0
2019-Apr-02 00:27N 34°41' E 135°11'0 0.0
2019-Apr-01 23:45N 34°41' E 135°11'0 0.0
2019-Apr-01 23:27N 34°41' E 135°11'0 0.0
2019-Apr-01 22:57N 34°41' E 135°11'0 0.0
2019-Apr-01 22:27N 34°41' E 135°11'0 0.0
2019-Apr-01 21:57N 34°41' E 135°11'0 0.0
2019-Apr-01 21:27N 34°41' E 135°11'0 0.0
2019-Apr-01 20:51N 34°41' E 135°11'0 0.0
2019-Apr-01 20:27N 34°41' E 135°11'0 0.0
2019-Apr-01 19:51N 34°41' E 135°11'0 0.1
2019-Apr-01 19:27N 34°41' E 135°11'0 0.1
2019-Apr-01 18:57N 34°41' E 135°11'0 0.0
2019-Apr-01 18:27N 34°41' E 135°11'0 0.0
2019-Apr-01 17:57N 34°41' E 135°11'0 0.0
2019-Apr-01 17:27N 34°41' E 135°11'0 0.0
2019-Apr-01 16:57N 34°41' E 135°11'0 0.0
2019-Apr-01 16:27N 34°41' E 135°11'0 0.0
2019-Apr-01 15:57N 34°41' E 135°11'0 0.0
2019-Apr-01 15:27N 34°41' E 135°11'0 0.0
2019-Apr-01 14:57N 34°41' E 135°11'0 0.0
2019-Apr-01 14:21N 34°41' E 135°11'0 0.0
2019-Apr-01 13:57N 34°41' E 135°11'0 0.0
2019-Apr-01 13:15N 34°41' E 135°11'0 0.0
2019-Apr-01 12:57N 34°41' E 135°11'0 0.0
2019-Apr-01 12:27N 34°41' E 135°11'0 0.0
2019-Apr-01 11:57N 34°41' E 135°11'0 0.0
2019-Apr-01 11:21N 34°41' E 135°11'0 0.0
2019-Apr-01 10:57N 34°41' E 135°11'0 0.0
2019-Apr-01 10:27N 34°41' E 135°11'0 0.0
2019-Apr-01 09:57N 34°41' E 135°11'0 0.0
2019-Apr-01 09:27N 34°41' E 135°11'0 0.0
2019-Apr-01 08:57N 34°41' E 135°11'0 0.0
2019-Apr-01 08:27N 34°41' E 135°11'0 0.0
2019-Apr-01 07:57N 34°41' E 135°11'0 0.0
2019-Apr-01 07:27N 34°41' E 135°11'0 0.0
2019-Apr-01 06:57N 34°41' E 135°11'0 0.0
2019-Apr-01 06:27N 34°41' E 135°11'0 0.0
2019-Apr-01 05:57N 34°41' E 135°11'0 0.0
2019-Apr-01 05:27N 34°41' E 135°11'0 0.0
2019-Apr-01 04:57N 34°41' E 135°11'0 0.0
2019-Apr-01 04:21N 34°41' E 135°11'0 0.0
2019-Apr-01 03:45N 34°41' E 135°11'0 0.0
2019-Apr-01 03:27N 34°41' E 135°11'0 0.0
2019-Apr-01 02:57N 34°41' E 135°11'0 0.0
2019-Apr-01 02:21N 34°41' E 135°11'0 0.0
2019-Apr-01 01:57N 34°41' E 135°11'0 0.0
2019-Apr-01 01:27N 34°41' E 135°11'0 0.0
2019-Apr-01 00:57N 34°41' E 135°11'0 0.0
2019-Apr-01 00:27N 34°41' E 135°11'0 0.0
2019-Mar-31 23:57N 34°41' E 135°11'0 0.0
2019-Mar-31 23:21N 34°41' E 135°11'0 0.0
2019-Mar-31 22:57N 34°41' E 135°11'0 0.0
2019-Mar-31 22:21N 34°41' E 135°11'0 0.0
2019-Mar-31 21:51N 34°41' E 135°11'0 0.0
2019-Mar-31 21:27N 34°41' E 135°11'0 0.0
2019-Mar-31 20:57N 34°41' E 135°11'0 0.0
2019-Mar-31 20:27N 34°41' E 135°11'0 0.0
2019-Mar-31 19:51N 34°41' E 135°11'0 0.0
2019-Mar-31 19:21N 34°41' E 135°11'0 0.0
2019-Mar-31 18:57N 34°41' E 135°11'0 0.0
2019-Mar-31 18:27N 34°41' E 135°11'0 0.0
2019-Mar-31 17:57N 34°41' E 135°11'0 0.0
2019-Mar-31 17:27N 34°41' E 135°11'0 0.0
2019-Mar-31 16:57N 34°41' E 135°11'0 0.0
2019-Mar-31 16:27N 34°41' E 135°11'0 0.0
2019-Mar-31 15:51N 34°41' E 135°11'0 0.0
2019-Mar-31 15:27N 34°41' E 135°11'0 0.0
2019-Mar-31 14:57N 34°41' E 135°11'0 0.0
2019-Mar-31 14:27N 34°41' E 135°11'0 0.0
2019-Mar-31 13:57N 34°41' E 135°11'0 0.0
2019-Mar-31 13:21N 34°41' E 135°11'0 0.0
2019-Mar-31 12:51N 34°41' E 135°11'0 0.0
2019-Mar-31 12:21N 34°41' E 135°11'0 0.0
2019-Mar-31 11:57N 34°41' E 135°11'0 0.0
2019-Mar-31 11:27N 34°41' E 135°11'0 0.0
2019-Mar-31 10:45N 34°41' E 135°11'0 0.0
2019-Mar-31 10:27N 34°41' E 135°11'0 0.0
2019-Mar-31 09:57N 34°41' E 135°11'0 0.0
2019-Mar-31 09:27N 34°41' E 135°11'0 0.0
2019-Mar-31 08:57N 34°41' E 135°11'0 0.0
2019-Mar-31 08:27N 34°41' E 135°11'0 0.0
2019-Mar-31 07:51N 34°41' E 135°11'0 0.0
2019-Mar-31 07:27N 34°41' E 135°11'0 0.0
2019-Mar-31 06:57N 34°41' E 135°11'0 0.4
2019-Mar-31 06:30N 34°41' E 135°11'1 2.3
2019-Mar-31 06:00N 34°40' E 135°12'4 7.0
2019-Mar-31 05:30N 34°36' E 135°10'2 5.0
2019-Mar-31 05:00N 34°35' E 135°08'2 4.4
2019-Mar-31 04:29N 34°33' E 135°05'2 3.9
2019-Mar-31 04:00N 34°32' E 135°03'2 4.1
2019-Mar-31 03:30N 34°31' E 135°01'2 3.1
2019-Mar-31 03:00N 34°30' E 134°60'3 5.7
2019-Mar-31 02:30N 34°28' E 134°58'4 7.1
2019-Mar-31 02:00N 34°25' E 134°55'1 1.1
2019-Mar-31 01:28N 34°25' E 134°54'0 0.0
2019-Mar-31 00:55N 34°25' E 134°54'0 0.1
2019-Mar-31 00:28N 34°25' E 134°54'0 0.0
2019-Mar-30 23:58N 34°25' E 134°54'0 0.0
2019-Mar-30 23:28N 34°25' E 134°54'0 0.0
2019-Mar-30 22:58N 34°25' E 134°54'0 0.0
2019-Mar-30 22:28N 34°25' E 134°54'0 0.0
2019-Mar-30 21:55N 34°25' E 134°54'0 0.1
2019-Mar-30 21:28N 34°25' E 134°54'0 0.0
2019-Mar-30 20:58N 34°25' E 134°54'0 0.0
2019-Mar-30 20:28N 34°25' E 134°54'0 0.0
2019-Mar-30 19:58N 34°25' E 134°54'0 0.0
2019-Mar-30 19:28N 34°25' E 134°54'0 0.0
2019-Mar-30 18:58N 34°25' E 134°54'0 0.0
2019-Mar-30 18:28N 34°25' E 134°54'0 0.0
2019-Mar-30 17:58N 34°25' E 134°54'0 0.0
2019-Mar-30 17:25N 34°25' E 134°54'0 0.0
2019-Mar-30 16:58N 34°25' E 134°54'0 0.0
2019-Mar-30 16:28N 34°25' E 134°54'0 0.0
2019-Mar-30 15:58N 34°25' E 134°54'0 0.0
2019-Mar-30 15:28N 34°25' E 134°54'0 0.0
2019-Mar-30 14:58N 34°25' E 134°54'0 0.0
2019-Mar-30 14:28N 34°25' E 134°54'0 0.0
2019-Mar-30 13:58N 34°25' E 134°54'0 0.0
2019-Mar-30 13:28N 34°25' E 134°54'0 0.0
2019-Mar-30 12:58N 34°25' E 134°54'0 0.0
2019-Mar-30 12:28N 34°25' E 134°54'0 0.0
2019-Mar-30 11:58N 34°25' E 134°54'0 0.0
2019-Mar-30 11:28N 34°25' E 134°54'0 0.0
2019-Mar-30 10:58N 34°25' E 134°54'0 0.0
2019-Mar-30 10:28N 34°25' E 134°54'0 0.0
2019-Mar-30 09:58N 34°25' E 134°54'0 0.0
2019-Mar-30 09:28N 34°25' E 134°54'0 0.0
2019-Mar-30 08:55N 34°25' E 134°54'0 0.0
2019-Mar-30 08:25N 34°25' E 134°54'0 0.0
2019-Mar-30 07:58N 34°25' E 134°54'0 0.1
2019-Mar-30 07:30N 34°25' E 134°54'2 4.4
2019-Mar-30 07:00N 34°26' E 134°56'2 3.5
2019-Mar-30 06:30N 34°28' E 134°58'3 5.6
2019-Mar-30 06:01N 34°25' E 134°56'1 1.3
2019-Mar-30 05:31N 34°26' E 134°55'2 3.2
2019-Mar-30 05:00N 34°25' E 134°56'2 3.3
2019-Mar-30 04:30N 34°26' E 134°57'3 5.5
2019-Mar-30 04:00N 34°28' E 134°58'2 4.5
2019-Mar-30 03:30N 34°29' E 135°01'2 3.4
2019-Mar-30 03:00N 34°30' E 135°02'4 7.2
2019-Mar-30 02:30N 34°33' E 135°05'4 7.5
2019-Mar-30 02:00N 34°36' E 135°08'4 7.4
2019-Mar-30 01:30N 34°39' E 135°11'2 3.4
2019-Mar-30 00:54N 34°41' E 135°11'0 0.0
2019-Mar-30 00:31N 34°41' E 135°11'0 0.0
2019-Mar-30 00:00N 34°41' E 135°11'0 0.0
2019-Mar-29 23:30N 34°41' E 135°11'0 0.0
2019-Mar-29 23:00N 34°41' E 135°11'0 0.0
2019-Mar-29 22:30N 34°41' E 135°11'0 0.0
2019-Mar-29 22:00N 34°41' E 135°11'0 0.0
2019-Mar-29 21:24N 34°41' E 135°11'0 0.0
2019-Mar-29 21:00N 34°41' E 135°11'0 0.0
2019-Mar-29 20:24N 34°41' E 135°11'0 0.0
2019-Mar-29 19:48N 34°41' E 135°11'0 0.0
2019-Mar-29 19:30N 34°41' E 135°11'0 0.0
2019-Mar-29 19:00N 34°41' E 135°11'0 0.0
2019-Mar-29 18:30N 34°41' E 135°11'0 0.0
2019-Mar-29 18:00N 34°41' E 135°11'0 0.0
2019-Mar-29 17:24N 34°41' E 135°11'0 0.0
2019-Mar-29 17:00N 34°41' E 135°11'0 0.0
2019-Mar-29 16:30N 34°41' E 135°11'0 0.0
2019-Mar-29 16:00N 34°41' E 135°11'0 0.0
2019-Mar-29 15:30N 34°41' E 135°11'0 0.0
2019-Mar-29 15:00N 34°41' E 135°11'0 0.0
2019-Mar-29 14:30N 34°41' E 135°11'0 0.0
2019-Mar-29 14:00N 34°41' E 135°11'0 0.0
2019-Mar-29 13:30N 34°41' E 135°11'0 0.0
2019-Mar-29 13:00N 34°41' E 135°11'0 0.0
2019-Mar-29 12:30N 34°41' E 135°11'0 0.0
2019-Mar-29 12:00N 34°41' E 135°11'0 0.0
2019-Mar-29 11:30N 34°41' E 135°11'0 0.0
2019-Mar-29 11:00N 34°41' E 135°11'0 0.0
2019-Mar-29 10:00N 34°41' E 135°11'0 0.0
2019-Mar-29 09:18N 34°41' E 135°11'0 0.0
2019-Mar-29 09:00N 34°41' E 135°11'0 0.0
2019-Mar-29 08:30N 34°41' E 135°11'0 0.0
2019-Mar-29 08:00N 34°41' E 135°11'0 0.0
2019-Mar-29 07:30N 34°41' E 135°11'0 0.0
2019-Mar-29 07:00N 34°41' E 135°11'0 0.0
2019-Mar-29 06:30N 34°41' E 135°11'0 0.0
2019-Mar-29 06:00N 34°41' E 135°11'0 0.0
2019-Mar-29 05:30N 34°41' E 135°11'0 0.0
2019-Mar-29 05:00N 34°41' E 135°11'0 0.0
2019-Mar-29 04:30N 34°41' E 135°11'0 0.0
2019-Mar-29 04:00N 34°41' E 135°11'0 0.0
2019-Mar-29 03:30N 34°41' E 135°11'0 0.0
2019-Mar-29 03:00N 34°41' E 135°11'0 0.0
2019-Mar-29 02:24N 34°41' E 135°11'0 0.0
2019-Mar-29 02:00N 34°41' E 135°11'0 0.0
2019-Mar-29 01:30N 34°41' E 135°11'0 0.0
2019-Mar-29 00:54N 34°41' E 135°11'0 0.0
2019-Mar-29 00:24N 34°41' E 135°11'0 0.0
2019-Mar-28 23:54N 34°41' E 135°11'0 0.0
2019-Mar-28 23:30N 34°41' E 135°11'0 0.0
2019-Mar-28 23:00N 34°41' E 135°11'0 0.0
2019-Mar-28 22:30N 34°41' E 135°11'0 0.0
2019-Mar-28 22:00N 34°41' E 135°11'0 0.1
2019-Mar-28 21:30N 34°41' E 135°11'0 0.1
2019-Mar-28 20:54N 34°41' E 135°11'0 0.0
2019-Mar-28 20:18N 34°41' E 135°11'0 0.0
2019-Mar-28 20:00N 34°41' E 135°11'0 0.0
2019-Mar-28 19:30N 34°41' E 135°11'0 0.0
2019-Mar-28 19:00N 34°41' E 135°11'0 0.0
2019-Mar-28 18:30N 34°41' E 135°11'0 0.0
2019-Mar-28 17:54N 34°41' E 135°11'0 0.0
2019-Mar-28 17:24N 34°41' E 135°11'0 0.0
2019-Mar-28 17:00N 34°41' E 135°11'0 0.0
2019-Mar-28 16:30N 34°41' E 135°11'0 0.0
2019-Mar-28 16:00N 34°41' E 135°11'0 0.0
2019-Mar-28 15:30N 34°41' E 135°11'0 0.0
2019-Mar-28 14:54N 34°41' E 135°11'0 0.0
2019-Mar-28 14:30N 34°41' E 135°11'0 0.0
2019-Mar-28 13:54N 34°41' E 135°11'0 0.0
2019-Mar-28 13:30N 34°41' E 135°11'0 0.0
2019-Mar-28 13:00N 34°41' E 135°11'0 0.0
2019-Mar-28 12:30N 34°41' E 135°11'0 0.0
2019-Mar-28 11:54N 34°41' E 135°11'0 0.0
2019-Mar-28 11:30N 34°41' E 135°11'0 0.0
2019-Mar-28 11:00N 34°41' E 135°11'0 0.0
2019-Mar-28 10:24N 34°41' E 135°11'0 0.0
2019-Mar-28 09:54N 34°41' E 135°11'0 0.0
2019-Mar-28 09:24N 34°41' E 135°11'0 0.0
2019-Mar-28 09:00N 34°41' E 135°11'0 0.0
2019-Mar-28 08:30N 34°41' E 135°11'0 0.0
2019-Mar-28 08:00N 34°41' E 135°11'0 0.0
2019-Mar-28 07:30N 34°41' E 135°11'0 0.0
2019-Mar-28 07:00N 34°41' E 135°11'1 1.9
2019-Mar-28 06:30N 34°40' E 135°12'1 1.6
2019-Mar-28 06:00N 34°39' E 135°11'1 1.8
2019-Mar-28 05:30N 34°38' E 135°11'1 2.1
2019-Mar-28 05:00N 34°37' E 135°10'1 2.8
2019-Mar-28 04:30N 34°36' E 135°09'2 3.2
2019-Mar-28 04:00N 34°35' E 135°08'2 4.8
2019-Mar-28 03:30N 34°33' E 135°06'2 4.6
2019-Mar-28 03:01N 34°31' E 135°05'1 2.8
2019-Mar-28 02:31N 34°30' E 135°04'2 4.9
2019-Mar-28 02:00N 34°28' E 135°02'3 5.1
2019-Mar-28 01:30N 34°26' E 135°00'2 4.8
2019-Mar-28 01:00N 34°24' E 134°59'2 4.0
2019-Mar-28 00:30N 34°22' E 134°58'3 5.5
2019-Mar-28 00:00N 34°21' E 134°55'0 0.6
2019-Mar-27 23:28N 34°21' E 134°54'0 0.0
2019-Mar-27 22:58N 34°21' E 134°54'0 0.0
2019-Mar-27 22:28N 34°21' E 134°54'0 0.0
2019-Mar-27 21:58N 34°21' E 134°54'0 0.0
2019-Mar-27 21:28N 34°21' E 134°54'0 0.0
2019-Mar-27 20:58N 34°21' E 134°54'0 0.0
2019-Mar-27 20:28N 34°21' E 134°54'0 0.0
2019-Mar-27 19:58N 34°21' E 134°54'0 0.0
2019-Mar-27 19:28N 34°21' E 134°54'0 0.0
2019-Mar-27 18:58N 34°21' E 134°54'0 0.0
2019-Mar-27 18:28N 34°21' E 134°54'0 0.1
2019-Mar-27 17:58N 34°21' E 134°54'0 0.0
2019-Mar-27 17:28N 34°21' E 134°54'0 0.0
2019-Mar-27 16:58N 34°21' E 134°54'0 0.0
2019-Mar-27 16:28N 34°21' E 134°54'0 0.0
2019-Mar-27 15:58N 34°21' E 134°54'0 0.0
2019-Mar-27 15:28N 34°21' E 134°54'0 0.0
2019-Mar-27 14:58N 34°21' E 134°54'0 0.0
2019-Mar-27 14:28N 34°21' E 134°54'0 0.0
2019-Mar-27 13:58N 34°21' E 134°54'0 0.0
2019-Mar-27 13:28N 34°21' E 134°54'0 0.0
2019-Mar-27 12:58N 34°21' E 134°54'0 0.0
2019-Mar-27 12:28N 34°21' E 134°54'0 0.0
2019-Mar-27 11:58N 34°21' E 134°54'0 0.0
2019-Mar-27 11:28N 34°21' E 134°54'0 0.0
2019-Mar-27 10:58N 34°21' E 134°54'0 0.0
2019-Mar-27 10:28N 34°21' E 134°54'0 0.0
2019-Mar-27 09:58N 34°21' E 134°54'0 0.0
2019-Mar-27 09:28N 34°21' E 134°54'0 0.0
2019-Mar-27 08:58N 34°21' E 134°54'0 0.0
2019-Mar-27 08:28N 34°21' E 134°54'0 0.0
2019-Mar-27 07:58N 34°21' E 134°54'0 0.0
2019-Mar-27 07:28N 34°21' E 134°54'0 0.0
2019-Mar-27 06:58N 34°21' E 134°54'0 0.0
2019-Mar-27 06:28N 34°21' E 134°54'0 0.0
2019-Mar-27 05:58N 34°21' E 134°54'0 0.0
2019-Mar-27 05:29N 34°21' E 134°54'0 0.0
2019-Mar-27 05:00N 34°21' E 134°54'1 2.6
2019-Mar-27 04:30N 34°21' E 134°56'3 6.0
2019-Mar-27 04:00N 34°24' E 134°58'3 5.9
2019-Mar-27 03:30N 34°25' E 135°01'3 6.1
2019-Mar-27 03:00N 34°27' E 135°04'3 6.4
2019-Mar-27 02:30N 34°28' E 135°08'4 6.9
2019-Mar-27 01:59N 34°30' E 135°12'3 6.7
2019-Mar-27 01:30N 34°31' E 135°15'2 3.0
2019-Mar-27 00:47N 34°30' E 135°17'1 4.1
2019-Mar-27 00:30N 34°29' E 135°17'2 3.8
2019-Mar-27 00:00N 34°27' E 135°16'0 0.0
2019-Mar-26 22:26N 34°27' E 135°16'0 0.0
2019-Mar-26 21:59N 34°27' E 135°16'0 0.0
2019-Mar-26 21:30N 34°27' E 135°16'0 0.0
2019-Mar-26 20:27N 34°27' E 135°16'0 0.0
2019-Mar-26 19:34N 34°27' E 135°16'0 0.0
2019-Mar-26 19:29N 34°27' E 135°16'0 0.0
2019-Mar-26 18:58N 34°27' E 135°16'0 0.1
2019-Mar-26 18:14N 34°27' E 135°16'0 0.2
2019-Mar-26 18:00N 34°27' E 135°16'0 0.0
2019-Mar-26 17:28N 34°27' E 135°16'0 0.0
2019-Mar-26 17:00N 34°27' E 135°16'0 0.0
2019-Mar-26 16:29N 34°27' E 135°16'0 0.0
2019-Mar-26 15:55N 34°27' E 135°16'0 0.0
2019-Mar-26 15:30N 34°27' E 135°16'0 0.0
2019-Mar-26 14:56N 34°27' E 135°16'0 0.0
2019-Mar-26 13:51N 34°27' E 135°16'  
Track history (hours):
 
Tides and Currents Weather Stations Pressure Air Temp Water Temp Dewpoint Dewpoint Depression Visibility Wind Speed Wind Dir Waves Ship Positions

Akogare (Japan)

Ship's website: http://www.akogare.or.jp/eng/top.html

Last reported at 2019-Apr-05 13:31 UTC. Time now 2019-Apr-25 15:46 UTC.
Position N 34°37' E 134°29'.
Warning: this ship's position is 20 days out of date.

Length 52 m; draft 4.5 m.

Type: Sailing vessel. MMSI: 431005001.

Date/timePositionNaut miles runAvg speedWind from/ knotsBaromVisibWave heightAir tempDewpointWater temp
2019-Apr-05 13:31N 34°37' E 134°29'1 6.3
2019-Apr-05 13:26N 34°37' E 134°30'18 6.3
2019-Apr-05 10:40N 34°38' E 134°51'2 9.9
2019-Apr-05 10:25N 34°37' E 134°54'4 9.1
2019-Apr-05 10:00N 34°37' E 134°58'4 8.6
2019-Apr-05 09:30N 34°36' E 135°03'4 7.4
2019-Apr-05 09:00N 34°37' E 135°08'4 7.2
2019-Apr-05 08:31N 34°39' E 135°11'2 3.0
2019-Apr-05 07:53N 34°41' E 135°11'0 0.0
2019-Apr-05 07:30N 34°41' E 135°11'0 0.0
2019-Apr-05 07:00N 34°41' E 135°11'0 0.0
2019-Apr-05 06:30N 34°41' E 135°11'0 0.0
2019-Apr-05 06:00N 34°41' E 135°11'0 0.0
2019-Apr-05 05:18N 34°41' E 135°11'0 0.0
2019-Apr-05 05:00N 34°41' E 135°11'0 0.0
2019-Apr-05 04:30N 34°41' E 135°11'0 0.0
2019-Apr-05 04:00N 34°41' E 135°11'0 0.0
2019-Apr-05 03:30N 34°41' E 135°11'0 0.0
2019-Apr-05 02:48N 34°41' E 135°11'0 0.0
2019-Apr-05 02:30N 34°41' E 135°11'0 0.0
2019-Apr-05 02:00N 34°41' E 135°11'0 0.0
2019-Apr-05 01:30N 34°41' E 135°11'0 0.0
2019-Apr-05 01:00N 34°41' E 135°11'0 0.0
2019-Apr-05 00:30N 34°41' E 135°11'0 0.0
2019-Apr-05 00:00N 34°41' E 135°11'0 0.0
2019-Apr-04 23:24N 34°41' E 135°11'0 0.0
2019-Apr-04 23:00N 34°41' E 135°11'0 0.0
2019-Apr-04 22:30N 34°41' E 135°11'0 0.0
2019-Apr-04 22:00N 34°41' E 135°11'0 0.0
2019-Apr-04 21:30N 34°41' E 135°11'0 0.0
2019-Apr-04 21:00N 34°41' E 135°11'0 0.0
2019-Apr-04 20:30N 34°41' E 135°11'0 0.0
2019-Apr-04 20:00N 34°41' E 135°11'0 0.1
2019-Apr-04 19:18N 34°41' E 135°11'0 0.1
2019-Apr-04 18:54N 34°41' E 135°11'0 0.0
2019-Apr-04 18:24N 34°41' E 135°11'0 0.0
2019-Apr-04 18:00N 34°41' E 135°11'0 0.0
2019-Apr-04 17:30N 34°41' E 135°11'0 0.0
2019-Apr-04 16:54N 34°41' E 135°11'0 0.0
2019-Apr-04 16:30N 34°41' E 135°11'0 0.0
2019-Apr-04 16:00N 34°41' E 135°11'0 0.0
2019-Apr-04 15:24N 34°41' E 135°11'0 0.0
2019-Apr-04 15:00N 34°41' E 135°11'0 0.0
2019-Apr-04 14:30N 34°41' E 135°11'0 0.0
2019-Apr-04 14:00N 34°41' E 135°11'0 0.0
2019-Apr-04 13:30N 34°41' E 135°11'0 0.0
2019-Apr-04 13:00N 34°41' E 135°11'0 0.0
2019-Apr-04 12:27N 34°41' E 135°11'0 0.0
2019-Apr-04 11:57N 34°41' E 135°11'0 0.0
2019-Apr-04 11:27N 34°41' E 135°11'0 0.0
2019-Apr-04 10:51N 34°41' E 135°11'0 0.0
2019-Apr-04 10:27N 34°41' E 135°11'0 0.0
2019-Apr-04 09:57N 34°41' E 135°11'0 0.0
2019-Apr-04 09:27N 34°41' E 135°11'0 0.0
2019-Apr-04 08:57N 34°41' E 135°11'0 0.0
2019-Apr-04 08:27N 34°41' E 135°11'0 0.0
2019-Apr-04 07:57N 34°41' E 135°11'0 0.0
2019-Apr-04 07:27N 34°41' E 135°11'0 0.0
2019-Apr-04 06:57N 34°41' E 135°11'0 0.0
2019-Apr-04 06:27N 34°41' E 135°11'0 0.0
2019-Apr-04 05:57N 34°41' E 135°11'0 0.0
2019-Apr-04 05:27N 34°41' E 135°11'0 0.0
2019-Apr-04 04:57N 34°41' E 135°11'0 0.0
2019-Apr-04 04:27N 34°41' E 135°11'0 0.0
2019-Apr-04 03:51N 34°41' E 135°11'0 0.0
2019-Apr-04 03:27N 34°41' E 135°11'0 0.0
2019-Apr-04 02:45N 34°41' E 135°11'0 0.0
2019-Apr-04 02:27N 34°41' E 135°11'0 0.0
2019-Apr-04 01:45N 34°41' E 135°11'0 0.0
2019-Apr-04 01:27N 34°41' E 135°11'0 0.0
2019-Apr-04 00:57N 34°41' E 135°11'0 0.0
2019-Apr-04 00:21N 34°41' E 135°11'0 0.0
2019-Apr-03 23:57N 34°41' E 135°11'0 0.0
2019-Apr-03 23:27N 34°41' E 135°11'0 0.0
2019-Apr-03 22:51N 34°41' E 135°11'0 0.0
2019-Apr-03 22:27N 34°41' E 135°11'0 0.0
2019-Apr-03 21:51N 34°41' E 135°11'0 0.0
2019-Apr-03 21:27N 34°41' E 135°11'0 0.0
2019-Apr-03 20:57N 34°41' E 135°11'0 0.0
2019-Apr-03 20:27N 34°41' E 135°11'0 0.0
2019-Apr-03 19:57N 34°41' E 135°11'0 0.0
2019-Apr-03 19:27N 34°41' E 135°11'0 0.0
2019-Apr-03 18:57N 34°41' E 135°11'0 0.0
2019-Apr-03 18:27N 34°41' E 135°11'0 0.0
2019-Apr-03 17:57N 34°41' E 135°11'0 0.0
2019-Apr-03 17:27N 34°41' E 135°11'0 0.0
2019-Apr-03 16:57N 34°41' E 135°11'0 0.0
2019-Apr-03 16:27N 34°41' E 135°11'0 0.0
2019-Apr-03 15:51N 34°41' E 135°11'0 0.0
2019-Apr-03 15:27N 34°41' E 135°11'0 0.0
2019-Apr-03 14:57N 34°41' E 135°11'0 0.0
2019-Apr-03 14:21N 34°41' E 135°11'0 0.0
2019-Apr-03 13:57N 34°41' E 135°11'0 0.0
2019-Apr-03 13:27N 34°41' E 135°11'0 0.0
2019-Apr-03 12:51N 34°41' E 135°11'0 0.0
2019-Apr-03 12:21N 34°41' E 135°11'0 0.0
2019-Apr-03 11:57N 34°41' E 135°11'0 0.0
2019-Apr-03 11:21N 34°41' E 135°11'0 0.0
2019-Apr-03 10:57N 34°41' E 135°11'0 0.0
2019-Apr-03 10:21N 34°41' E 135°11'0 0.0
2019-Apr-03 09:57N 34°41' E 135°11'0 0.0
2019-Apr-03 09:27N 34°41' E 135°11'0 0.0
2019-Apr-03 08:57N 34°41' E 135°11'0 0.0
2019-Apr-03 08:27N 34°41' E 135°11'0 0.0
2019-Apr-03 07:57N 34°41' E 135°11'0 0.0
2019-Apr-03 07:27N 34°41' E 135°11'0 0.0
2019-Apr-03 06:51N 34°41' E 135°11'0 0.0
2019-Apr-03 06:15N 34°41' E 135°11'0 0.0
2019-Apr-03 05:57N 34°41' E 135°11'0 0.0
2019-Apr-03 05:27N 34°41' E 135°11'0 0.0
2019-Apr-03 04:51N 34°41' E 135°11'0 0.0
2019-Apr-03 04:27N 34°41' E 135°11'0 0.0
2019-Apr-03 03:57N 34°41' E 135°11'0 0.0
2019-Apr-03 03:27N 34°41' E 135°11'0 0.0
2019-Apr-03 02:57N 34°41' E 135°11'0 0.0
2019-Apr-03 02:21N 34°41' E 135°11'0 0.0
2019-Apr-03 01:57N 34°41' E 135°11'0 0.0
2019-Apr-03 01:27N 34°41' E 135°11'0 0.0
2019-Apr-03 00:51N 34°41' E 135°11'0 0.0
2019-Apr-03 00:27N 34°41' E 135°11'0 0.0
2019-Apr-02 23:57N 34°41' E 135°11'0 0.0
2019-Apr-02 23:27N 34°41' E 135°11'0 0.0
2019-Apr-02 22:51N 34°41' E 135°11'0 0.0
2019-Apr-02 22:27N 34°41' E 135°11'0 0.0
2019-Apr-02 21:57N 34°41' E 135°11'0 0.0
2019-Apr-02 21:21N 34°41' E 135°11'0 0.0
2019-Apr-02 20:51N 34°41' E 135°11'0 0.0
2019-Apr-02 20:27N 34°41' E 135°11'0 0.0
2019-Apr-02 19:45N 34°41' E 135°11'0 0.1
2019-Apr-02 19:21N 34°41' E 135°11'0 0.1
2019-Apr-02 18:57N 34°41' E 135°11'0 0.0
2019-Apr-02 18:27N 34°41' E 135°11'0 0.0
2019-Apr-02 17:57N 34°41' E 135°11'0 0.0
2019-Apr-02 17:27N 34°41' E 135°11'0 0.0
2019-Apr-02 16:57N 34°41' E 135°11'0 0.0
2019-Apr-02 16:27N 34°41' E 135°11'0 0.0
2019-Apr-02 15:57N 34°41' E 135°11'0 0.0
2019-Apr-02 15:27N 34°41' E 135°11'0 0.0
2019-Apr-02 14:57N 34°41' E 135°11'0 0.0
2019-Apr-02 14:27N 34°41' E 135°11'0 0.0
2019-Apr-02 13:57N 34°41' E 135°11'0 0.0
2019-Apr-02 13:27N 34°41' E 135°11'0 0.0
2019-Apr-02 12:51N 34°41' E 135°11'0 0.0
2019-Apr-02 12:15N 34°41' E 135°11'0 0.0
2019-Apr-02 11:45N 34°41' E 135°11'0 0.0
2019-Apr-02 11:27N 34°41' E 135°11'0 0.0
2019-Apr-02 10:57N 34°41' E 135°11'0 0.0
2019-Apr-02 10:27N 34°41' E 135°11'0 0.0
2019-Apr-02 09:51N 34°41' E 135°11'0 0.0
2019-Apr-02 09:21N 34°41' E 135°11'0 0.0
2019-Apr-02 08:57N 34°41' E 135°11'0 0.0
2019-Apr-02 08:27N 34°41' E 135°11'0 0.0
2019-Apr-02 07:51N 34°41' E 135°11'0 0.0
2019-Apr-02 07:27N 34°41' E 135°11'0 0.0
2019-Apr-02 06:57N 34°41' E 135°11'0 0.0
2019-Apr-02 06:27N 34°41' E 135°11'0 0.0
2019-Apr-02 05:57N 34°41' E 135°11'0 0.0
2019-Apr-02 05:27N 34°41' E 135°11'0 0.0
2019-Apr-02 04:57N 34°41' E 135°11'0 0.0
2019-Apr-02 04:27N 34°41' E 135°11'0 0.0
2019-Apr-02 03:57N 34°41' E 135°11'0 0.0
2019-Apr-02 03:27N 34°41' E 135°11'0 0.0
2019-Apr-02 02:51N 34°41' E 135°11'0 0.0
2019-Apr-02 02:21N 34°41' E 135°11'0 0.0
2019-Apr-02 01:51N 34°41' E 135°11'0 0.0
2019-Apr-02 01:27N 34°41' E 135°11'0 0.0
2019-Apr-02 00:57N 34°41' E 135°11'0 0.0
2019-Apr-02 00:27N 34°41' E 135°11'0 0.0
2019-Apr-01 23:45N 34°41' E 135°11'0 0.0
2019-Apr-01 23:27N 34°41' E 135°11'0 0.0
2019-Apr-01 22:57N 34°41' E 135°11'0 0.0
2019-Apr-01 22:27N 34°41' E 135°11'0 0.0
2019-Apr-01 21:57N 34°41' E 135°11'0 0.0
2019-Apr-01 21:27N 34°41' E 135°11'0 0.0
2019-Apr-01 20:51N 34°41' E 135°11'0 0.0
2019-Apr-01 20:27N 34°41' E 135°11'0 0.0
2019-Apr-01 19:51N 34°41' E 135°11'0 0.1
2019-Apr-01 19:27N 34°41' E 135°11'0 0.1
2019-Apr-01 18:57N 34°41' E 135°11'0 0.0
2019-Apr-01 18:27N 34°41' E 135°11'0 0.0
2019-Apr-01 17:57N 34°41' E 135°11'0 0.0
2019-Apr-01 17:27N 34°41' E 135°11'0 0.0
2019-Apr-01 16:57N 34°41' E 135°11'0 0.0
2019-Apr-01 16:27N 34°41' E 135°11'0 0.0
2019-Apr-01 15:57N 34°41' E 135°11'0 0.0
2019-Apr-01 15:27N 34°41' E 135°11'0 0.0
2019-Apr-01 14:57N 34°41' E 135°11'0 0.0
2019-Apr-01 14:21N 34°41' E 135°11'0 0.0
2019-Apr-01 13:57N 34°41' E 135°11'0 0.0
2019-Apr-01 13:15N 34°41' E 135°11'0 0.0
2019-Apr-01 12:57N 34°41' E 135°11'0 0.0
2019-Apr-01 12:27N 34°41' E 135°11'0 0.0
2019-Apr-01 11:57N 34°41' E 135°11'0 0.0
2019-Apr-01 11:21N 34°41' E 135°11'0 0.0
2019-Apr-01 10:57N 34°41' E 135°11'0 0.0
2019-Apr-01 10:27N 34°41' E 135°11'0 0.0
2019-Apr-01 09:57N 34°41' E 135°11'0 0.0
2019-Apr-01 09:27N 34°41' E 135°11'0 0.0
2019-Apr-01 08:57N 34°41' E 135°11'0 0.0
2019-Apr-01 08:27N 34°41' E 135°11'0 0.0
2019-Apr-01 07:57N 34°41' E 135°11'0 0.0
2019-Apr-01 07:27N 34°41' E 135°11'0 0.0
2019-Apr-01 06:57N 34°41' E 135°11'0 0.0
2019-Apr-01 06:27N 34°41' E 135°11'0 0.0
2019-Apr-01 05:57N 34°41' E 135°11'0 0.0
2019-Apr-01 05:27N 34°41' E 135°11'0 0.0
2019-Apr-01 04:57N 34°41' E 135°11'0 0.0
2019-Apr-01 04:21N 34°41' E 135°11'0 0.0
2019-Apr-01 03:45N 34°41' E 135°11'0 0.0
2019-Apr-01 03:27N 34°41' E 135°11'0 0.0
2019-Apr-01 02:57N 34°41' E 135°11'0 0.0
2019-Apr-01 02:21N 34°41' E 135°11'0 0.0
2019-Apr-01 01:57N 34°41' E 135°11'0 0.0
2019-Apr-01 01:27N 34°41' E 135°11'0 0.0
2019-Apr-01 00:57N 34°41' E 135°11'0 0.0
2019-Apr-01 00:27N 34°41' E 135°11'0 0.0
2019-Mar-31 23:57N 34°41' E 135°11'0 0.0
2019-Mar-31 23:21N 34°41' E 135°11'0 0.0
2019-Mar-31 22:57N 34°41' E 135°11'0 0.0
2019-Mar-31 22:21N 34°41' E 135°11'0 0.0
2019-Mar-31 21:51N 34°41' E 135°11'0 0.0
2019-Mar-31 21:27N 34°41' E 135°11'0 0.0
2019-Mar-31 20:57N 34°41' E 135°11'0 0.0
2019-Mar-31 20:27N 34°41' E 135°11'0 0.0
2019-Mar-31 19:51N 34°41' E 135°11'0 0.0
2019-Mar-31 19:21N 34°41' E 135°11'0 0.0
2019-Mar-31 18:57N 34°41' E 135°11'0 0.0
2019-Mar-31 18:27N 34°41' E 135°11'0 0.0
2019-Mar-31 17:57N 34°41' E 135°11'0 0.0
2019-Mar-31 17:27N 34°41' E 135°11'0 0.0
2019-Mar-31 16:57N 34°41' E 135°11'0 0.0
2019-Mar-31 16:27N 34°41' E 135°11'0 0.0
2019-Mar-31 15:51N 34°41' E 135°11'0 0.0
2019-Mar-31 15:27N 34°41' E 135°11'0 0.0
2019-Mar-31 14:57N 34°41' E 135°11'0 0.0
2019-Mar-31 14:27N 34°41' E 135°11'0 0.0
2019-Mar-31 13:57N 34°41' E 135°11'0 0.0
2019-Mar-31 13:21N 34°41' E 135°11'0 0.0
2019-Mar-31 12:51N 34°41' E 135°11'0 0.0
2019-Mar-31 12:21N 34°41' E 135°11'0 0.0
2019-Mar-31 11:57N 34°41' E 135°11'0 0.0
2019-Mar-31 11:27N 34°41' E 135°11'0 0.0
2019-Mar-31 10:45N 34°41' E 135°11'0 0.0
2019-Mar-31 10:27N 34°41' E 135°11'0 0.0
2019-Mar-31 09:57N 34°41' E 135°11'0 0.0
2019-Mar-31 09:27N 34°41' E 135°11'0 0.0
2019-Mar-31 08:57N 34°41' E 135°11'0 0.0
2019-Mar-31 08:27N 34°41' E 135°11'0 0.0
2019-Mar-31 07:51N 34°41' E 135°11'0 0.0
2019-Mar-31 07:27N 34°41' E 135°11'0 0.0
2019-Mar-31 06:57N 34°41' E 135°11'0 0.4
2019-Mar-31 06:30N 34°41' E 135°11'1 2.3
2019-Mar-31 06:00N 34°40' E 135°12'4 7.0
2019-Mar-31 05:30N 34°36' E 135°10'2 5.0
2019-Mar-31 05:00N 34°35' E 135°08'2 4.4
2019-Mar-31 04:29N 34°33' E 135°05'2 3.9
2019-Mar-31 04:00N 34°32' E 135°03'2 4.1
2019-Mar-31 03:30N 34°31' E 135°01'2 3.1
2019-Mar-31 03:00N 34°30' E 134°60'3 5.7
2019-Mar-31 02:30N 34°28' E 134°58'4 7.1
2019-Mar-31 02:00N 34°25' E 134°55'1 1.1
2019-Mar-31 01:28N 34°25' E 134°54'0 0.0
2019-Mar-31 00:55N 34°25' E 134°54'0 0.1
2019-Mar-31 00:28N 34°25' E 134°54'0 0.0
2019-Mar-30 23:58N 34°25' E 134°54'0 0.0
2019-Mar-30 23:28N 34°25' E 134°54'0 0.0
2019-Mar-30 22:58N 34°25' E 134°54'0 0.0
2019-Mar-30 22:28N 34°25' E 134°54'0 0.0
2019-Mar-30 21:55N 34°25' E 134°54'0 0.1
2019-Mar-30 21:28N 34°25' E 134°54'0 0.0
2019-Mar-30 20:58N 34°25' E 134°54'0 0.0
2019-Mar-30 20:28N 34°25' E 134°54'0 0.0
2019-Mar-30 19:58N 34°25' E 134°54'0 0.0
2019-Mar-30 19:28N 34°25' E 134°54'0 0.0
2019-Mar-30 18:58N 34°25' E 134°54'0 0.0
2019-Mar-30 18:28N 34°25' E 134°54'0 0.0
2019-Mar-30 17:58N 34°25' E 134°54'0 0.0
2019-Mar-30 17:25N 34°25' E 134°54'0 0.0
2019-Mar-30 16:58N 34°25' E 134°54'0 0.0
2019-Mar-30 16:28N 34°25' E 134°54'0 0.0
2019-Mar-30 15:58N 34°25' E 134°54'0 0.0
2019-Mar-30 15:28N 34°25' E 134°54'0 0.0
2019-Mar-30 14:58N 34°25' E 134°54'0 0.0
2019-Mar-30 14:28N 34°25' E 134°54'0 0.0
2019-Mar-30 13:58N 34°25' E 134°54'0 0.0
2019-Mar-30 13:28N 34°25' E 134°54'0 0.0
2019-Mar-30 12:58N 34°25' E 134°54'0 0.0
2019-Mar-30 12:28N 34°25' E 134°54'0 0.0
2019-Mar-30 11:58N 34°25' E 134°54'0 0.0
2019-Mar-30 11:28N 34°25' E 134°54'0 0.0
2019-Mar-30 10:58N 34°25' E 134°54'0 0.0
2019-Mar-30 10:28N 34°25' E 134°54'0 0.0
2019-Mar-30 09:58N 34°25' E 134°54'0 0.0
2019-Mar-30 09:28N 34°25' E 134°54'0 0.0
2019-Mar-30 08:55N 34°25' E 134°54'0 0.0
2019-Mar-30 08:25N 34°25' E 134°54'0 0.0
2019-Mar-30 07:58N 34°25' E 134°54'0 0.1
2019-Mar-30 07:30N 34°25' E 134°54'2 4.4
2019-Mar-30 07:00N 34°26' E 134°56'2 3.5
2019-Mar-30 06:30N 34°28' E 134°58'3 5.6
2019-Mar-30 06:01N 34°25' E 134°56'1 1.3
2019-Mar-30 05:31N 34°26' E 134°55'2 3.2
2019-Mar-30 05:00N 34°25' E 134°56'2 3.3
2019-Mar-30 04:30N 34°26' E 134°57'3 5.5
2019-Mar-30 04:00N 34°28' E 134°58'2 4.5
2019-Mar-30 03:30N 34°29' E 135°01'2 3.4
2019-Mar-30 03:00N 34°30' E 135°02'4 7.2
2019-Mar-30 02:30N 34°33' E 135°05'4 7.5
2019-Mar-30 02:00N 34°36' E 135°08'4 7.4
2019-Mar-30 01:30N 34°39' E 135°11'2 3.4
2019-Mar-30 00:54N 34°41' E 135°11'0 0.0
2019-Mar-30 00:31N 34°41' E 135°11'0 0.0
2019-Mar-30 00:00N 34°41' E 135°11'0 0.0
2019-Mar-29 23:30N 34°41' E 135°11'0 0.0
2019-Mar-29 23:00N 34°41' E 135°11'0 0.0
2019-Mar-29 22:30N 34°41' E 135°11'0 0.0
2019-Mar-29 22:00N 34°41' E 135°11'0 0.0
2019-Mar-29 21:24N 34°41' E 135°11'0 0.0
2019-Mar-29 21:00N 34°41' E 135°11'0 0.0
2019-Mar-29 20:24N 34°41' E 135°11'0 0.0
2019-Mar-29 19:48N 34°41' E 135°11'0 0.0
2019-Mar-29 19:30N 34°41' E 135°11'0 0.0
2019-Mar-29 19:00N 34°41' E 135°11'0 0.0
2019-Mar-29 18:30N 34°41' E 135°11'0 0.0
2019-Mar-29 18:00N 34°41' E 135°11'0 0.0
2019-Mar-29 17:24N 34°41' E 135°11'0 0.0
2019-Mar-29 17:00N 34°41' E 135°11'0 0.0
2019-Mar-29 16:30N 34°41' E 135°11'0 0.0
2019-Mar-29 16:00N 34°41' E 135°11'0 0.0
2019-Mar-29 15:30N 34°41' E 135°11'0 0.0
2019-Mar-29 15:00N 34°41' E 135°11'0 0.0
2019-Mar-29 14:30N 34°41' E 135°11'0 0.0
2019-Mar-29 14:00N 34°41' E 135°11'0 0.0
2019-Mar-29 13:30N 34°41' E 135°11'0 0.0
2019-Mar-29 13:00N 34°41' E 135°11'0 0.0
2019-Mar-29 12:30N 34°41' E 135°11'0 0.0
2019-Mar-29 12:00N 34°41' E 135°11'0 0.0
2019-Mar-29 11:30N 34°41' E 135°11'0 0.0
2019-Mar-29 11:00N 34°41' E 135°11'0 0.0
2019-Mar-29 10:00N 34°41' E 135°11'0 0.0
2019-Mar-29 09:18N 34°41' E 135°11'0 0.0
2019-Mar-29 09:00N 34°41' E 135°11'0 0.0
2019-Mar-29 08:30N 34°41' E 135°11'0 0.0
2019-Mar-29 08:00N 34°41' E 135°11'0 0.0
2019-Mar-29 07:30N 34°41' E 135°11'0 0.0
2019-Mar-29 07:00N 34°41' E 135°11'0 0.0
2019-Mar-29 06:30N 34°41' E 135°11'0 0.0
2019-Mar-29 06:00N 34°41' E 135°11'0 0.0
2019-Mar-29 05:30N 34°41' E 135°11'0 0.0
2019-Mar-29 05:00N 34°41' E 135°11'0 0.0
2019-Mar-29 04:30N 34°41' E 135°11'0 0.0
2019-Mar-29 04:00N 34°41' E 135°11'0 0.0
2019-Mar-29 03:30N 34°41' E 135°11'0 0.0
2019-Mar-29 03:00N 34°41' E 135°11'0 0.0
2019-Mar-29 02:24N 34°41' E 135°11'0 0.0
2019-Mar-29 02:00N 34°41' E 135°11'0 0.0
2019-Mar-29 01:30N 34°41' E 135°11'0 0.0
2019-Mar-29 00:54N 34°41' E 135°11'0 0.0
2019-Mar-29 00:24N 34°41' E 135°11'0 0.0
2019-Mar-28 23:54N 34°41' E 135°11'0 0.0
2019-Mar-28 23:30N 34°41' E 135°11'0 0.0
2019-Mar-28 23:00N 34°41' E 135°11'0 0.0
2019-Mar-28 22:30N 34°41' E 135°11'0 0.0
2019-Mar-28 22:00N 34°41' E 135°11'0 0.1
2019-Mar-28 21:30N 34°41' E 135°11'0 0.1
2019-Mar-28 20:54N 34°41' E 135°11'0 0.0
2019-Mar-28 20:18N 34°41' E 135°11'0 0.0
2019-Mar-28 20:00N 34°41' E 135°11'0 0.0
2019-Mar-28 19:30N 34°41' E 135°11'0 0.0
2019-Mar-28 19:00N 34°41' E 135°11'0 0.0
2019-Mar-28 18:30N 34°41' E 135°11'0 0.0
2019-Mar-28 17:54N 34°41' E 135°11'0 0.0
2019-Mar-28 17:24N 34°41' E 135°11'0 0.0
2019-Mar-28 17:00N 34°41' E 135°11'0 0.0
2019-Mar-28 16:30N 34°41' E 135°11'0 0.0
2019-Mar-28 16:00N 34°41' E 135°11'0 0.0
2019-Mar-28 15:30N 34°41' E 135°11'0 0.0
2019-Mar-28 14:54N 34°41' E 135°11'0 0.0
2019-Mar-28 14:30N 34°41' E 135°11'0 0.0
2019-Mar-28 13:54N 34°41' E 135°11'0 0.0
2019-Mar-28 13:30N 34°41' E 135°11'0 0.0
2019-Mar-28 13:00N 34°41' E 135°11'0 0.0
2019-Mar-28 12:30N 34°41' E 135°11'0 0.0
2019-Mar-28 11:54N 34°41' E 135°11'0 0.0
2019-Mar-28 11:30N 34°41' E 135°11'0 0.0
2019-Mar-28 11:00N 34°41' E 135°11'0 0.0
2019-Mar-28 10:24N 34°41' E 135°11'0 0.0
2019-Mar-28 09:54N 34°41' E 135°11'0 0.0
2019-Mar-28 09:24N 34°41' E 135°11'0 0.0
2019-Mar-28 09:00N 34°41' E 135°11'0 0.0
2019-Mar-28 08:30N 34°41' E 135°11'0 0.0
2019-Mar-28 08:00N 34°41' E 135°11'0 0.0
2019-Mar-28 07:30N 34°41' E 135°11'0 0.0
2019-Mar-28 07:00N 34°41' E 135°11'1 1.9
2019-Mar-28 06:30N 34°40' E 135°12'1 1.6
2019-Mar-28 06:00N 34°39' E 135°11'1 1.8
2019-Mar-28 05:30N 34°38' E 135°11'1 2.1
2019-Mar-28 05:00N 34°37' E 135°10'1 2.8
2019-Mar-28 04:30N 34°36' E 135°09'2 3.2
2019-Mar-28 04:00N 34°35' E 135°08'2 4.8
2019-Mar-28 03:30N 34°33' E 135°06'2 4.6
2019-Mar-28 03:01N 34°31' E 135°05'1 2.8
2019-Mar-28 02:31N 34°30' E 135°04'2 4.9
2019-Mar-28 02:00N 34°28' E 135°02'3 5.1
2019-Mar-28 01:30N 34°26' E 135°00'2 4.8
2019-Mar-28 01:00N 34°24' E 134°59'2 4.0
2019-Mar-28 00:30N 34°22' E 134°58'3 5.5
2019-Mar-28 00:00N 34°21' E 134°55'0 0.6
2019-Mar-27 23:28N 34°21' E 134°54'0 0.0
2019-Mar-27 22:58N 34°21' E 134°54'0 0.0
2019-Mar-27 22:28N 34°21' E 134°54'0 0.0
2019-Mar-27 21:58N 34°21' E 134°54'0 0.0
2019-Mar-27 21:28N 34°21' E 134°54'0 0.0
2019-Mar-27 20:58N 34°21' E 134°54'0 0.0
2019-Mar-27 20:28N 34°21' E 134°54'0 0.0
2019-Mar-27 19:58N 34°21' E 134°54'0 0.0
2019-Mar-27 19:28N 34°21' E 134°54'0 0.0
2019-Mar-27 18:58N 34°21' E 134°54'0 0.0
2019-Mar-27 18:28N 34°21' E 134°54'0 0.1
2019-Mar-27 17:58N 34°21' E 134°54'0 0.0
2019-Mar-27 17:28N 34°21' E 134°54'0 0.0
2019-Mar-27 16:58N 34°21' E 134°54'0 0.0
2019-Mar-27 16:28N 34°21' E 134°54'0 0.0
2019-Mar-27 15:58N 34°21' E 134°54'0 0.0
2019-Mar-27 15:28N 34°21' E 134°54'0 0.0
2019-Mar-27 14:58N 34°21' E 134°54'0 0.0
2019-Mar-27 14:28N 34°21' E 134°54'0 0.0
2019-Mar-27 13:58N 34°21' E 134°54'0 0.0
2019-Mar-27 13:28N 34°21' E 134°54'0 0.0
2019-Mar-27 12:58N 34°21' E 134°54'0 0.0
2019-Mar-27 12:28N 34°21' E 134°54'0 0.0
2019-Mar-27 11:58N 34°21' E 134°54'0 0.0
2019-Mar-27 11:28N 34°21' E 134°54'0 0.0
2019-Mar-27 10:58N 34°21' E 134°54'0 0.0
2019-Mar-27 10:28N 34°21' E 134°54'0 0.0
2019-Mar-27 09:58N 34°21' E 134°54'0 0.0
2019-Mar-27 09:28N 34°21' E 134°54'0 0.0
2019-Mar-27 08:58N 34°21' E 134°54'0 0.0
2019-Mar-27 08:28N 34°21' E 134°54'0 0.0
2019-Mar-27 07:58N 34°21' E 134°54'0 0.0
2019-Mar-27 07:28N 34°21' E 134°54'0 0.0
2019-Mar-27 06:58N 34°21' E 134°54'0 0.0
2019-Mar-27 06:28N 34°21' E 134°54'0 0.0
2019-Mar-27 05:58N 34°21' E 134°54'0 0.0
2019-Mar-27 05:29N 34°21' E 134°54'0 0.0
2019-Mar-27 05:00N 34°21' E 134°54'1 2.6
2019-Mar-27 04:30N 34°21' E 134°56'3 6.0
2019-Mar-27 04:00N 34°24' E 134°58'3 5.9
2019-Mar-27 03:30N 34°25' E 135°01'3 6.1
2019-Mar-27 03:00N 34°27' E 135°04'3 6.4
2019-Mar-27 02:30N 34°28' E 135°08'4 6.9
2019-Mar-27 01:59N 34°30' E 135°12'3 6.7
2019-Mar-27 01:30N 34°31' E 135°15'2 3.0
2019-Mar-27 00:47N 34°30' E 135°17'1 4.1
2019-Mar-27 00:30N 34°29' E 135°17'2 3.8
2019-Mar-27 00:00N 34°27' E 135°16'0 0.0
2019-Mar-26 22:26N 34°27' E 135°16'0 0.0
2019-Mar-26 21:59N 34°27' E 135°16'0 0.0
2019-Mar-26 21:30N 34°27' E 135°16'0 0.0
2019-Mar-26 20:27N 34°27' E 135°16'0 0.0
2019-Mar-26 19:34N 34°27' E 135°16'0 0.0
2019-Mar-26 19:29N 34°27' E 135°16'0 0.0
2019-Mar-26 18:58N 34°27' E 135°16'0 0.1
2019-Mar-26 18:14N 34°27' E 135°16'0 0.2
2019-Mar-26 18:00N 34°27' E 135°16'0 0.0
2019-Mar-26 17:28N 34°27' E 135°16'0 0.0
2019-Mar-26 17:00N 34°27' E 135°16'0 0.0
2019-Mar-26 16:29N 34°27' E 135°16'0 0.0
2019-Mar-26 15:55N 34°27' E 135°16'0 0.0
2019-Mar-26 15:30N 34°27' E 135°16'0 0.0
2019-Mar-26 14:56N 34°27' E 135°16'0 0.0
2019-Mar-26 13:51N 34°27' E 135°16'  

Dump ship's entire track history